Time;durP1;ratioP1;P1;durP2;ratioP2;P2;SDS_P1;SDS_P2;PMS_P1;PMS_P2;Temp;Humidity;BMP_temperature;BMP_pressure;BME280_temperature;BME280_humidity;BME280_pressure;Samples;Min_cycle;Max_cycle;Signal;HPM_P1;HPM_P2
2024/01/08 00:02:27;;;;;;;14.10;12.70;;;23.60;68.10;;;;;;6263173;28;89075;-91
2024/01/08 00:05:29;;;;;;;14.27;12.85;;;23.60;68.10;;;;;;6263676;28;89130;-91
2024/01/08 00:08:31;;;;;;;14.60;13.30;;;23.60;68.10;;;;;;6263641;28;88980;-91
2024/01/08 00:11:35;;;;;;;14.95;13.55;;;23.60;68.00;;;;;;6263557;28;89612;-91
2024/01/08 00:14:37;;;;;;;14.50;13.10;;;23.60;68.10;;;;;;6263120;28;88927;-92
2024/01/08 00:17:39;;;;;;;14.52;13.15;;;23.60;68.30;;;;;;6263666;28;89048;-91
2024/01/08 00:20:43;;;;;;;13.77;12.48;;;23.50;68.30;;;;;;6264325;28;87225;-91
2024/01/08 00:23:45;;;;;;;14.27;12.90;;;23.60;68.50;;;;;;6263714;28;88232;-91
2024/01/08 00:26:49;;;;;;;14.30;12.90;;;23.60;68.40;;;;;;6263799;28;89382;-91
2024/01/08 00:29:51;;;;;;;14.85;13.35;;;23.60;68.50;;;;;;6258914;28;88963;-91
2024/01/08 00:32:53;;;;;;;14.70;13.30;;;23.60;68.40;;;;;;6262951;28;89103;-91
2024/01/08 00:35:56;;;;;;;13.98;12.60;;;23.60;68.30;;;;;;6263289;28;89301;-91
2024/01/08 00:38:58;;;;;;;14.25;12.85;;;23.60;68.10;;;;;;6263356;28;89357;-91
2024/01/08 00:42:02;;;;;;;14.82;13.43;;;23.60;67.90;;;;;;6263208;28;89464;-91
2024/01/08 00:45:06;;;;;;;13.85;12.55;;;23.60;67.90;;;;;;6263629;28;89022;-91
2024/01/08 00:48:08;;;;;;;13.98;12.68;;;23.60;67.90;;;;;;6262747;28;89160;-91
2024/01/08 00:51:10;;;;;;;14.23;12.88;;;23.60;67.90;;;;;;6263519;28;88386;-91
2024/01/08 00:54:13;;;;;;;13.57;12.27;;;23.60;67.90;;;;;;6261196;28;89199;-91
2024/01/08 00:57:20;;;;;;;13.90;12.50;;;23.60;67.80;;;;;;6262918;28;89400;-91
2024/01/08 01:00:22;;;;;;;13.88;12.48;;;23.60;67.80;;;;;;6260990;28;90116;-91
2024/01/08 01:03:25;;;;;;;14.63;13.13;;;23.60;67.80;;;;;;6262932;28;88969;-91
2024/01/08 01:06:27;;;;;;;14.00;12.60;;;23.60;67.80;;;;;;6262936;28;89066;-91
2024/01/08 01:09:30;;;;;;;13.27;12.07;;;23.60;67.70;;;;;;6258418;28;87973;-91
2024/01/08 01:12:34;;;;;;;13.63;12.32;;;23.60;67.70;;;;;;6244278;28;88709;-91
2024/01/08 01:15:37;;;;;;;13.18;11.90;;;23.60;67.70;;;;;;6262227;28;89005;-91
2024/01/08 01:18:39;;;;;;;13.85;12.45;;;23.50;67.70;;;;;;6262516;28;88433;-91
2024/01/08 01:21:41;;;;;;;12.85;11.55;;;23.50;67.80;;;;;;6263201;28;88242;-91
2024/01/08 01:24:43;;;;;;;13.48;12.13;;;23.50;68.10;;;;;;6262074;28;89047;-91
2024/01/08 01:27:47;;;;;;;12.48;11.27;;;23.50;68.20;;;;;;6262637;28;88868;-91
2024/01/08 01:30:49;;;;;;;12.98;11.77;;;23.50;68.20;;;;;;6261350;28;90004;-91
2024/01/08 01:33:51;;;;;;;12.30;11.10;;;23.60;68.10;;;;;;6262076;28;89505;-91
2024/01/08 01:36:53;;;;;;;13.85;12.45;;;23.60;68.00;;;;;;6262160;28;89274;-92
2024/01/08 01:39:57;;;;;;;12.50;11.30;;;23.60;68.00;;;;;;6261067;28;89172;-91
2024/01/08 01:43:00;;;;;;;12.73;11.52;;;23.60;68.00;;;;;;6261672;28;89471;-91
2024/01/08 01:46:06;;;;;;;12.55;11.35;;;23.60;67.90;;;;;;6260859;28;89078;-91
2024/01/08 01:49:12;;;;;;;12.43;11.23;;;23.60;67.10;;;;;;6261727;28;89583;-92
2024/01/08 01:52:16;;;;;;;13.15;11.85;;;23.60;67.60;;;;;;6261825;28;88289;-91
2024/01/08 01:55:18;;;;;;;12.68;11.48;;;23.50;67.50;;;;;;6261792;28;89093;-91
2024/01/08 01:58:24;;;;;;;11.65;10.55;;;23.60;67.50;;;;;;6261438;28;88241;-91
2024/01/08 02:01:26;;;;;;;11.85;10.65;;;23.60;67.50;;;;;;6260884;28;90144;-91
2024/01/08 02:04:30;;;;;;;11.65;10.55;;;23.60;67.40;;;;;;6261823;28;89123;-91
2024/01/08 02:07:32;;;;;;;11.77;10.60;;;23.50;67.40;;;;;;6260032;27;88071;-92
2024/01/08 02:10:35;;;;;;;12.30;11.10;;;23.60;68.40;;;;;;6261016;28;89102;-91
2024/01/08 02:13:39;;;;;;;11.70;10.55;;;23.50;67.40;;;;;;6257418;28;87917;-91
2024/01/08 02:16:41;;;;;;;11.70;10.60;;;23.60;67.50;;;;;;6261186;28;88980;-91
2024/01/08 02:19:44;;;;;;;11.95;10.85;;;23.50;67.40;;;;;;6261395;28;88219;-92
2024/01/08 02:22:49;;;;;;;11.70;10.60;;;23.50;67.50;;;;;;6261667;28;88204;-91
2024/01/08 02:25:51;;;;;;;11.38;10.27;;;23.50;67.60;;;;;;6261111;28;89018;-91
2024/01/08 02:28:53;;;;;;;10.90;9.90;;;23.50;67.70;;;;;;6256046;28;88070;-92
2024/01/08 02:31:56;;;;;;;11.95;10.75;;;23.50;67.90;;;;;;6260665;28;89948;-91
2024/01/08 02:34:59;;;;;;;10.98;9.88;;;23.50;68.00;;;;;;6260496;28;88986;-91
2024/01/08 02:38:02;;;;;;;10.57;9.57;;;23.50;68.00;;;;;;6261649;28;89285;-91
2024/01/08 02:41:04;;;;;;;10.50;9.50;;;23.50;67.90;;;;;;6262081;28;89001;-91
2024/01/08 02:44:07;;;;;;;10.50;9.50;;;23.50;67.80;;;;;;6261506;28;89520;-91
2024/01/08 02:47:10;;;;;;;10.50;9.48;;;23.60;67.80;;;;;;6261517;28;89431;-91
2024/01/08 02:50:12;;;;;;;10.27;9.27;;;23.50;67.90;;;;;;6260662;28;89075;-92
2024/01/08 02:53:17;;;;;;;10.32;9.32;;;23.50;67.60;;;;;;6261549;28;88419;-91
2024/01/08 02:56:20;;;;;;;10.57;9.57;;;23.50;67.60;;;;;;6259863;28;89521;-92
2024/01/08 02:59:22;;;;;;;9.98;9.07;;;23.50;67.50;;;;;;6261701;28;89986;-91
2024/01/08 03:02:25;;;;;;;10.07;9.10;;;23.60;67.60;;;;;;6257062;28;88030;-91
2024/01/08 03:05:28;;;;;;;10.10;9.20;;;23.50;67.40;;;;;;6261252;28;88278;-91
2024/01/08 03:08:32;;;;;;;9.68;8.77;;;23.50;67.40;;;;;;6261579;28;88326;-91
2024/01/08 03:11:34;;;;;;;10.00;9.05;;;23.50;67.40;;;;;;6260730;28;88970;-91
2024/01/08 03:14:36;;;;;;;10.40;9.40;;;23.50;67.50;;;;;;6261212;28;88075;-92
2024/01/08 03:17:39;;;;;;;10.23;9.23;;;23.50;67.50;;;;;;6242715;28;89141;-91
2024/01/08 03:20:41;;;;;;;9.88;8.88;;;23.50;67.50;;;;;;6256010;28;88350;-91
2024/01/08 03:23:45;;;;;;;9.63;8.73;;;23.50;67.50;;;;;;6259872;28;88400;-91
2024/01/08 03:26:47;;;;;;;9.75;8.82;;;23.40;67.40;;;;;;6260843;28;89032;-91
2024/01/08 03:29:49;;;;;;;9.10;8.20;;;23.50;67.50;;;;;;6260358;28;89088;-91
2024/01/08 03:32:51;;;;;;;9.35;8.45;;;23.50;67.60;;;;;;6259058;28;89975;-91
2024/01/08 03:35:53;;;;;;;8.57;7.78;;;23.40;67.70;;;;;;6260589;28;89339;-92
2024/01/08 03:38:57;;;;;;;9.30;8.40;;;23.50;68.00;;;;;;6260997;28;89087;-91
2024/01/08 03:41:59;;;;;;;8.82;8.02;;;23.50;68.00;;;;;;6257296;28;87925;-92
2024/01/08 03:45:01;;;;;;;8.60;7.80;;;23.50;68.00;;;;;;6260558;28;89026;-91
2024/01/08 03:48:04;;;;;;;9.18;8.27;;;23.50;67.90;;;;;;6260884;28;89121;-92
2024/01/08 03:51:06;;;;;;;8.48;7.68;;;23.50;67.90;;;;;;6260557;28;89131;-91
2024/01/08 03:54:11;;;;;;;8.60;7.80;;;23.50;68.00;;;;;;6261036;28;88395;-91
2024/01/08 03:57:13;;;;;;;8.35;7.55;;;23.50;67.80;;;;;;6260739;28;89402;-91
2024/01/08 04:00:16;;;;;;;8.45;7.65;;;23.50;67.60;;;;;;6260697;28;88907;-91
2024/01/08 04:03:18;;;;;;;7.93;7.22;;;23.50;67.40;;;;;;6259857;28;89988;-91
2024/01/08 04:06:20;;;;;;;7.68;6.97;;;23.50;67.40;;;;;;6260549;28;88963;-91
2024/01/08 04:09:23;;;;;;;8.18;7.38;;;23.50;67.40;;;;;;6256149;28;88301;-91
2024/01/08 04:12:27;;;;;;;7.75;7.05;;;23.50;67.40;;;;;;6260185;28;89406;-91
2024/01/08 04:15:29;;;;;;;8.10;7.30;;;23.50;67.40;;;;;;6260047;28;89034;-91
2024/01/08 04:18:32;;;;;;;7.93;7.13;;;23.50;67.40;;;;;;6260283;28;89039;-91
2024/01/08 04:21:34;;;;;;;8.00;7.20;;;23.50;67.40;;;;;;6260116;28;89354;-91
2024/01/08 04:24:38;;;;;;;8.20;7.43;;;23.50;67.40;;;;;;6260760;28;88281;-91
2024/01/08 04:27:40;;;;;;;8.00;7.20;;;23.50;67.30;;;;;;6259772;28;89119;-92
2024/01/08 04:30:42;;;;;;;7.80;7.10;;;23.50;67.30;;;;;;6261405;27;88960;-91
2024/01/08 04:33:44;;;;;;;8.20;7.40;;;23.40;67.20;;;;;;6263499;27;88882;-91
2024/01/08 04:36:47;;;;;;;8.18;7.38;;;23.50;67.30;;;;;;6264033;28;89051;-91
2024/01/08 04:39:51;;;;;;;7.82;7.13;;;23.50;67.20;;;;;;6264262;28;89376;-92
2024/01/08 04:42:53;;;;;;;8.85;7.97;;;23.40;67.30;;;;;;6264317;28;87930;-92
2024/01/08 04:45:55;;;;;;;8.50;7.70;;;23.40;67.40;;;;;;6264237;28;89245;-91
2024/01/08 04:48:57;;;;;;;8.32;7.55;;;23.50;67.40;;;;;;6263956;28;89173;-91
2024/01/08 04:52:00;;;;;;;8.77;7.97;;;23.50;67.40;;;;;;6263673;28;88935;-92
2024/01/08 04:55:04;;;;;;;8.20;7.40;;;23.50;67.60;;;;;;6264604;28;88896;-91
2024/01/08 04:58:07;;;;;;;7.93;7.22;;;23.40;67.40;;;;;;6263830;28;88000;-92
2024/01/08 05:01:09;;;;;;;7.88;7.18;;;23.40;67.40;;;;;;6263771;28;88990;-91
2024/01/08 05:04:11;;;;;;;8.60;7.70;;;23.50;67.20;;;;;;6263229;28;88861;-91
2024/01/08 05:07:13;;;;;;;8.77;7.97;;;23.50;67.20;;;;;;6263495;28;89181;-91
2024/01/08 05:10:18;;;;;;;8.35;7.55;;;23.50;67.20;;;;;;6263792;28;89098;-91
2024/01/08 05:13:20;;;;;;;8.32;7.53;;;23.50;67.10;;;;;;6263625;28;89513;-91
2024/01/08 05:16:22;;;;;;;8.20;7.40;;;23.50;67.10;;;;;;6263145;28;89221;-91
2024/01/08 05:19:24;;;;;;;8.25;7.45;;;23.50;67.10;;;;;;6263420;28;88050;-91
2024/01/08 05:22:27;;;;;;;8.73;7.93;;;23.50;67.10;;;;;;6263311;28;88559;-91
2024/01/08 05:25:33;;;;;;;8.25;7.45;;;23.50;67.10;;;;;;6263992;28;87514;-91
2024/01/08 05:28:35;;;;;;;7.80;7.10;;;23.50;67.10;;;;;;6263391;28;89208;-91
2024/01/08 05:31:37;;;;;;;8.10;7.38;;;23.40;67.00;;;;;;6263108;28;88324;-91
2024/01/08 05:34:41;;;;;;;8.48;7.68;;;23.50;67.10;;;;;;6262065;28;89418;-91
2024/01/08 05:37:43;;;;;;;8.20;7.40;;;23.50;67.00;;;;;;6262883;28;89490;-91
2024/01/08 05:40:49;;;;;;;8.20;7.40;;;23.50;67.00;;;;;;6263156;28;89569;-91
2024/01/08 05:43:52;;;;;;;8.13;7.32;;;23.50;67.00;;;;;;6261730;28;89290;-91
2024/01/08 05:46:54;;;;;;;7.95;7.22;;;23.40;66.90;;;;;;6262711;28;89099;-91
2024/01/08 05:49:56;;;;;;;8.40;7.60;;;23.50;67.00;;;;;;6263405;28;89402;-91
2024/01/08 05:53:00;;;;;;;8.25;7.45;;;23.50;67.10;;;;;;6262435;28;89703;-91
2024/01/08 05:56:04;;;;;;;8.43;7.63;;;23.50;67.10;;;;;;6263125;28;88674;-91
2024/01/08 05:59:07;;;;;;;8.10;7.40;;;23.50;67.20;;;;;;6262701;28;89362;-91
2024/01/08 06:02:10;;;;;;;7.53;6.82;;;23.50;67.20;;;;;;6262410;28;88941;-91
2024/01/08 06:05:12;;;;;;;7.90;7.10;;;23.50;67.10;;;;;;6261341;28;90647;-92
2024/01/08 06:08:14;;;;;;;7.90;7.20;;;23.40;67.00;;;;;;6262171;28;88941;-91
2024/01/08 06:11:18;;;;;;;7.47;6.78;;;23.50;66.90;;;;;;6262411;28;89557;-91
2024/01/08 06:14:20;;;;;;;7.82;7.03;;;23.60;66.80;;;;;;6262405;28;89139;-92
2024/01/08 06:17:23;;;;;;;7.45;6.75;;;23.50;66.80;;;;;;6262385;28;88907;-92
2024/01/08 06:20:25;;;;;;;7.70;7.00;;;23.60;66.90;;;;;;6262109;28;89363;-91
2024/01/08 06:23:28;;;;;;;7.65;6.95;;;23.50;66.90;;;;;;6261694;28;88926;-91
2024/01/08 06:26:31;;;;;;;7.53;6.82;;;23.50;66.70;;;;;;6262398;28;88263;-91
2024/01/08 06:29:33;;;;;;;7.07;6.47;;;23.50;66.80;;;;;;6258345;28;88355;-91
2024/01/08 06:32:35;;;;;;;7.55;6.85;;;23.50;66.80;;;;;;6257948;28;88013;-91
2024/01/08 06:35:39;;;;;;;7.15;6.45;;;23.50;66.90;;;;;;6261446;28;89218;-91
2024/01/08 06:38:43;;;;;;;7.93;7.18;;;23.50;66.70;;;;;;6261346;28;89079;-91
2024/01/08 06:41:47;;;;;;;7.45;6.75;;;23.50;66.70;;;;;;6261323;28;89062;-92
2024/01/08 06:44:49;;;;;;;7.75;6.95;;;23.50;66.70;;;;;;6261088;28;89346;-91
2024/01/08 06:47:51;;;;;;;6.90;6.30;;;23.50;66.70;;;;;;6261759;28;89378;-91
2024/01/08 06:50:53;;;;;;;6.90;6.30;;;23.50;66.70;;;;;;6261516;28;89075;-91
2024/01/08 06:53:56;;;;;;;7.20;6.50;;;23.50;66.70;;;;;;6261109;27;89073;-91
2024/01/08 06:56:59;;;;;;;6.97;6.28;;;23.50;66.70;;;;;;6261833;28;88243;-91
2024/01/08 07:00:01;;;;;;;6.50;5.90;;;23.50;66.70;;;;;;6261671;28;89207;-91
2024/01/08 07:03:04;;;;;;;7.05;6.38;;;23.60;66.80;;;;;;6261585;28;89043;-91
2024/01/08 07:06:06;;;;;;;6.95;6.28;;;23.60;66.80;;;;;;6260624;28;88957;-91
2024/01/08 07:09:08;;;;;;;6.75;6.05;;;23.60;66.90;;;;;;6261042;28;89112;-91
2024/01/08 07:12:11;;;;;;;6.97;6.28;;;23.50;66.80;;;;;;6261189;28;89400;-92
2024/01/08 07:15:41;;;;;;;7.20;6.50;;;23.60;67.10;;;;;;6260851;28;89152;-91
2024/01/08 07:18:43;;;;;;;6.72;6.13;;;23.50;66.70;;;;;;6263036;28;89118;-91
2024/01/08 07:21:46;;;;;;;6.95;6.28;;;23.60;66.80;;;;;;6257128;28;87939;-91
2024/01/08 07:24:48;;;;;;;7.03;6.13;;;23.50;66.70;;;;;;6261622;28;89310;-91
2024/01/08 07:27:52;;;;;;;6.60;6.00;;;23.60;66.70;;;;;;6261384;28;88300;-91
2024/01/08 07:30:54;;;;;;;6.82;6.15;;;23.60;66.70;;;;;;6261114;28;88989;-91
2024/01/08 07:33:56;;;;;;;6.50;5.90;;;23.60;66.70;;;;;;6260965;28;89161;-91
2024/01/08 07:36:58;;;;;;;6.70;6.10;;;23.50;66.70;;;;;;6260492;28;90059;-91
2024/01/08 07:40:01;;;;;;;6.43;5.82;;;23.60;66.70;;;;;;6260714;28;89072;-91
2024/01/08 07:43:05;;;;;;;5.80;5.30;;;23.50;66.60;;;;;;6261096;28;89048;-91
2024/01/08 07:46:07;;;;;;;6.57;5.97;;;23.60;66.70;;;;;;6260448;28;89047;-91
2024/01/08 07:49:10;;;;;;;6.18;5.57;;;23.60;66.70;;;;;;6260447;28;89239;-91
2024/01/08 07:52:12;;;;;;;6.15;5.55;;;23.60;66.70;;;;;;6260532;28;88989;-91
2024/01/08 07:55:15;;;;;;;6.50;5.72;;;23.60;66.70;;;;;;6260312;28;89035;-91
2024/01/08 07:58:19;;;;;;;5.93;5.40;;;23.60;66.60;;;;;;6261008;28;88412;-91
2024/01/08 08:01:21;;;;;;;5.75;5.15;;;23.60;66.60;;;;;;6260409;28;89019;-91
2024/01/08 08:04:25;;;;;;;5.70;5.20;;;23.60;66.70;;;;;;6256443;28;88575;-91
2024/01/08 08:07:28;;;;;;;5.88;5.38;;;23.60;66.70;;;;;;6263618;28;89950;-91
2024/01/08 08:10:30;;;;;;;6.05;5.47;;;23.60;66.70;;;;;;6264588;28;88915;-91
2024/01/08 08:13:34;;;;;;;5.88;5.30;;;23.60;66.80;;;;;;6264374;28;89850;-91
2024/01/08 08:16:36;;;;;;;5.95;5.35;;;23.60;66.80;;;;;;6264111;28;89524;-91
2024/01/08 08:19:41;;;;;;;6.07;5.50;;;23.60;66.90;;;;;;6264452;28;89867;-91
2024/01/08 08:22:43;;;;;;;5.97;5.38;;;23.60;67.10;;;;;;6264427;28;89964;-91
2024/01/08 08:25:45;;;;;;;6.40;5.80;;;23.60;67.10;;;;;;6264527;28;89728;-90
2024/01/08 08:28:49;;;;;;;5.97;5.40;;;23.50;66.70;;;;;;6265174;28;88270;-91
2024/01/08 08:31:51;;;;;;;5.63;5.03;;;23.60;66.80;;;;;;6263994;28;89034;-91
2024/01/08 08:34:53;;;;;;;5.50;5.00;;;23.60;66.70;;;;;;6263974;27;89048;-91
2024/01/08 08:37:56;;;;;;;5.43;4.93;;;23.50;66.60;;;;;;6263505;28;90063;-91
2024/01/08 08:40:58;;;;;;;5.28;4.78;;;23.50;66.60;;;;;;6264152;28;88990;-91
2024/01/08 08:44:02;;;;;;;5.50;5.00;;;23.50;66.60;;;;;;6263872;28;88429;-91
2024/01/08 08:47:05;;;;;;;5.53;5.03;;;23.50;66.50;;;;;;6264085;28;88905;-91
2024/01/08 08:50:09;;;;;;;5.22;4.72;;;23.60;66.60;;;;;;6263790;28;89017;-91
2024/01/08 08:53:11;;;;;;;5.72;5.13;;;23.50;66.50;;;;;;6264413;28;89055;-91
2024/01/08 08:56:13;;;;;;;5.20;4.70;;;23.50;66.60;;;;;;6263653;28;89582;-91
2024/01/08 08:59:17;;;;;;;5.53;4.72;;;23.50;66.60;;;;;;6264463;28;86537;-91
2024/01/08 09:02:19;;;;;;;5.30;4.80;;;23.50;66.60;;;;;;6263666;28;89473;-91
2024/01/08 09:05:21;;;;;;;5.13;4.63;;;23.50;66.60;;;;;;6259753;28;87904;-91
2024/01/08 09:08:26;;;;;;;5.00;4.50;;;23.50;66.60;;;;;;6263106;28;90533;-91
2024/01/08 09:11:28;;;;;;;5.03;4.63;;;23.50;66.60;;;;;;6263688;28;89003;-91
2024/01/08 09:14:32;;;;;;;5.13;4.63;;;23.50;66.70;;;;;;6263155;28;89094;-91
2024/01/08 09:17:35;;;;;;;5.13;4.63;;;23.50;66.70;;;;;;6263421;27;89071;-91
2024/01/08 09:20:37;;;;;;;4.88;4.47;;;23.50;66.80;;;;;;6263412;28;89012;-91
2024/01/08 09:23:41;;;;;;;5.10;4.60;;;23.50;66.80;;;;;;6263118;28;89016;-91
2024/01/08 09:26:45;;;;;;;5.07;4.57;;;23.50;66.90;;;;;;6263441;28;89324;-91
2024/01/08 09:29:49;;;;;;;5.20;4.70;;;23.50;66.90;;;;;;6263642;28;88452;-91
2024/01/08 09:32:52;;;;;;;4.93;4.43;;;23.50;66.70;;;;;;6262940;28;88451;-91
2024/01/08 09:35:54;;;;;;;4.68;4.28;;;23.50;66.70;;;;;;6263030;28;89014;-91
2024/01/08 09:38:56;;;;;;;4.80;4.40;;;23.60;66.70;;;;;;6262356;28;90311;-91
2024/01/08 09:42:02;;;;;;;4.90;4.40;;;23.50;66.40;;;;;;6263077;28;88966;-91
2024/01/08 09:45:11;;;;;;;4.80;4.40;;;23.50;66.40;;;;;;6262987;27;88589;-91
2024/01/08 09:48:14;;;;;;;4.70;4.30;;;23.50;66.40;;;;;;6262885;28;89018;-91
2024/01/08 09:51:16;;;;;;;4.70;4.07;;;23.60;66.40;;;;;;6262118;28;87567;-91
2024/01/08 09:54:21;;;;;;;4.45;4.05;;;23.50;66.40;;;;;;6262665;28;89141;-91
2024/01/08 09:57:24;;;;;;;5.10;4.60;;;23.50;66.30;;;;;;6262569;28;89152;-91
2024/01/08 10:00:28;;;;;;;4.65;4.20;;;23.60;66.40;;;;;;6263147;28;88247;-91
2024/01/08 10:03:30;;;;;;;4.53;4.13;;;23.60;66.40;;;;;;6262557;28;89062;-91
2024/01/08 10:06:33;;;;;;;4.60;4.20;;;23.60;67.30;;;;;;6262362;28;89197;-91
2024/01/08 10:09:35;;;;;;;4.50;4.10;;;23.60;66.40;;;;;;6261487;28;89952;-91
2024/01/08 10:12:37;;;;;;;4.15;3.75;;;23.60;66.40;;;;;;6262086;28;89327;-91
2024/01/08 10:15:47;;;;;;;4.47;4.07;;;23.60;66.40;;;;;;6262172;28;88965;-91
2024/01/08 10:18:49;;;;;;;4.10;3.70;;;23.60;66.40;;;;;;6262251;28;89241;-91
2024/01/08 10:22:08;;;;;;;4.18;3.78;;;23.60;66.40;;;;;;6262143;28;88959;-91
2024/01/08 10:25:10;;;;;;;4.60;4.20;;;23.50;67.30;;;;;;6262367;28;89358;-91
2024/01/08 10:28:12;;;;;;;4.32;3.92;;;23.60;66.50;;;;;;6261440;27;89086;-91
2024/01/08 10:31:16;;;;;;;4.38;3.97;;;23.60;66.60;;;;;;6262249;28;88236;-91
2024/01/08 10:34:19;;;;;;;3.97;3.65;;;23.50;66.50;;;;;;6262109;28;89089;-91
2024/01/08 10:37:22;;;;;;;4.53;4.13;;;23.50;66.50;;;;;;6261869;28;89680;-91
2024/01/08 10:40:24;;;;;;;4.10;3.70;;;23.50;66.60;;;;;;6261372;28;89866;-91
2024/01/08 10:43:27;;;;;;;4.10;3.70;;;23.50;66.40;;;;;;6257830;28;88436;-91
2024/01/08 10:46:39;;;;;;;3.85;3.55;;;23.60;66.30;;;;;;6261825;28;88034;-91
2024/01/08 10:49:45;;;;;;;4.22;3.83;;;23.60;66.20;;;;;;6261673;28;88947;-91
2024/01/08 10:52:56;;;;;;;4.05;3.65;;;23.60;66.20;;;;;;6260975;28;89340;-92
2024/01/08 10:55:59;;;;;;;4.22;3.83;;;23.60;66.10;;;;;;6257472;28;87992;-90
2024/01/08 10:59:05;;;;;;;4.80;3.95;;;23.60;66.10;;;;;;6261991;28;89118;-92
2024/01/08 11:02:11;;;;;;;4.13;3.72;;;23.60;66.10;;;;;;6261716;28;88351;-91
2024/01/08 11:05:17;;;;;;;7.35;3.97;;;23.60;66.10;;;;;;6262537;28;88021;-91
2024/01/08 11:08:21;;;;;;;12.70;4.50;;;23.60;66.50;;;;;;6261526;28;89165;-91
2024/01/08 11:11:23;;;;;;;10.43;5.47;;;23.60;67.40;;;;;;6261018;28;89975;-91
2024/01/08 11:14:26;;;;;;;94.93;49.58;;;23.70;70.50;;;;;;6262703;28;88980;-91
2024/01/08 11:17:30;;;;;;;24.73;12.13;;;23.70;75.90;;;;;;6259944;28;89072;-91
2024/01/08 11:20:44;;;;;;;18.70;9.90;;;23.90;70.40;;;;;;6261782;28;87888;-91
2024/01/08 11:23:49;;;;;;;17.75;8.70;;;24.00;69.40;;;;;;6261990;28;89280;-91
2024/01/08 11:26:52;;;;;;;13.23;6.90;;;24.10;68.80;;;;;;6261799;28;88266;-91
2024/01/08 11:29:58;;;;;;;13.10;6.35;;;24.10;68.30;;;;;;6261232;28;88947;-91
2024/01/08 11:33:27;;;;;;;12.52;6.13;;;24.20;68.20;;;;;;6261633;28;88380;-90
2024/01/08 11:36:44;;;;;;;9.55;5.15;;;24.10;67.90;;;;;;6261434;28;88969;-91
2024/01/08 11:39:49;;;;;;;8.88;4.85;;;24.10;67.90;;;;;;6260813;27;89144;-90
2024/01/08 11:42:52;;;;;;;7.70;5.00;;;24.10;68.10;;;;;;6265091;28;90729;-90
2024/01/08 11:45:54;;;;;;;7.05;4.80;;;24.10;67.70;;;;;;6265466;28;88910;-91
2024/01/08 11:48:58;;;;;;;6.53;4.50;;;24.00;67.60;;;;;;6265285;28;88965;-91
2024/01/08 11:52:01;;;;;;;7.30;4.78;;;24.00;67.40;;;;;;6265553;28;88982;-91
2024/01/08 11:55:04;;;;;;;7.68;5.00;;;24.00;67.20;;;;;;6264768;28;87923;-91
2024/01/08 11:58:08;;;;;;;9.68;4.80;;;23.90;67.10;;;;;;6264988;28;89030;-91
2024/01/08 12:01:19;;;;;;;6.00;4.10;;;24.00;67.10;;;;;;6265170;28;89127;-91
2024/01/08 12:04:23;;;;;;;5.93;4.25;;;23.90;67.00;;;;;;6265575;28;88317;-91
2024/01/08 12:07:27;;;;;;;9.18;4.68;;;23.90;67.00;;;;;;6265831;28;89002;-91
2024/01/08 12:10:30;;;;;;;8.20;4.60;;;23.90;67.00;;;;;;6265197;28;89011;-91
2024/01/08 12:13:32;;;;;;;7.43;4.35;;;23.90;67.00;;;;;;6264075;28;90026;-91
2024/01/08 12:16:35;;;;;;;9.77;4.63;;;23.90;67.10;;;;;;6264918;28;89121;-91
2024/01/08 12:19:41;;;;;;;6.68;4.40;;;23.90;67.10;;;;;;6264680;28;89004;-91
2024/01/08 12:22:44;;;;;;;7.88;3.92;;;23.90;67.00;;;;;;6264568;28;88543;-91
2024/01/08 12:25:50;;;;;;;5.15;4.07;;;23.90;67.00;;;;;;6264798;28;88503;-91
2024/01/08 12:28:52;;;;;;;5.90;4.15;;;23.90;67.00;;;;;;6264718;28;87927;-91
2024/01/08 12:31:57;;;;;;;4.97;4.05;;;23.90;67.00;;;;;;6264722;28;89375;-91
2024/01/08 12:35:04;;;;;;;5.20;3.97;;;23.90;67.20;;;;;;6264883;28;88296;-90
2024/01/08 12:38:06;;;;;;;7.72;4.05;;;23.80;67.10;;;;;;6263834;28;89459;-91
2024/01/08 12:41:08;;;;;;;5.70;4.15;;;23.80;67.20;;;;;;6263216;28;88742;-91
2024/01/08 12:44:10;;;;;;;6.03;4.00;;;23.80;67.20;;;;;;6262960;28;90144;-91
2024/01/08 12:47:13;;;;;;;4.78;3.67;;;23.90;67.20;;;;;;6263463;28;90067;-91
2024/01/08 12:50:20;;;;;;;5.03;3.78;;;23.90;67.10;;;;;;6260234;28;88018;-91
2024/01/08 12:53:22;;;;;;;5.35;4.07;;;23.90;67.10;;;;;;6263871;28;88182;-91
2024/01/08 12:56:24;;;;;;;4.50;3.80;;;23.90;67.00;;;;;;6263914;28;89047;-90
2024/01/08 12:59:28;;;;;;;5.90;4.10;;;23.90;67.90;;;;;;6263383;27;88531;-91
2024/01/08 13:02:32;;;;;;;5.38;4.00;;;23.90;67.00;;;;;;6263358;28;88912;-91
2024/01/08 13:05:36;;;;;;;6.03;3.90;;;23.90;67.00;;;;;;6263861;28;88353;-91
2024/01/08 13:08:38;;;;;;;5.72;3.90;;;23.90;66.90;;;;;;6263377;28;89132;-91
2024/01/08 13:11:41;;;;;;;3.85;3.35;;;23.90;67.00;;;;;;6259785;28;88088;-91
2024/01/08 13:14:45;;;;;;;5.25;3.70;;;23.90;66.90;;;;;;6263099;28;88936;-90
2024/01/08 13:17:47;;;;;;;4.25;3.33;;;23.90;67.00;;;;;;6245674;28;88886;-91
2024/01/08 13:20:51;;;;;;;4.70;3.60;;;23.90;67.00;;;;;;6259856;28;87938;-91
2024/01/08 13:23:53;;;;;;;4.88;3.78;;;23.90;67.00;;;;;;6263306;28;89277;-91
2024/01/08 13:26:56;;;;;;;5.00;3.50;;;23.90;67.00;;;;;;6263573;28;88017;-91
2024/01/08 13:29:58;;;;;;;4.20;3.50;;;23.90;67.00;;;;;;6263411;28;88983;-91
2024/01/08 13:33:00;;;;;;;4.35;3.50;;;23.90;67.00;;;;;;6262768;28;89491;-91
2024/01/08 13:36:04;;;;;;;6.13;3.70;;;23.80;67.10;;;;;;6263365;28;87229;-91
2024/01/08 13:39:08;;;;;;;4.80;3.40;;;23.90;67.10;;;;;;6263229;28;86987;-91
2024/01/08 13:42:15;;;;;;;4.05;3.50;;;23.90;67.20;;;;;;6263464;28;89458;-91
2024/01/08 13:45:17;;;;;;;3.72;3.22;;;23.80;67.20;;;;;;6262519;28;90455;-91
2024/01/08 13:48:19;;;;;;;4.80;3.58;;;23.80;67.20;;;;;;6263116;28;88991;-91
2024/01/08 13:51:23;;;;;;;5.72;3.53;;;23.80;67.20;;;;;;6263094;28;89028;-91
2024/01/08 13:54:25;;;;;;;3.88;3.10;;;23.80;67.20;;;;;;6262735;28;89106;-91
2024/01/08 13:57:27;;;;;;;3.85;3.20;;;23.90;68.10;;;;;;6258909;28;88292;-91
2024/01/08 14:00:30;;;;;;;4.22;3.28;;;23.90;67.10;;;;;;6262818;28;87943;-91
2024/01/08 14:03:32;;;;;;;3.70;3.13;;;23.90;67.10;;;;;;6261810;27;89061;-90
2024/01/08 14:06:36;;;;;;;3.45;3.10;;;23.90;67.10;;;;;;6263082;28;88444;-91
2024/01/08 14:09:38;;;;;;;3.92;3.40;;;23.90;67.10;;;;;;6263178;28;89113;-91
2024/01/08 14:12:40;;;;;;;3.75;3.35;;;23.90;67.20;;;;;;6258550;28;87967;-91
2024/01/08 14:15:42;;;;;;;3.42;3.10;;;23.90;67.20;;;;;;6261557;28;90095;-91
2024/01/08 14:18:45;;;;;;;3.40;3.10;;;23.90;67.20;;;;;;6262190;28;89016;-91
2024/01/08 14:21:49;;;;;;;3.60;3.30;;;23.90;67.20;;;;;;6262068;28;89339;-91
2024/01/08 14:24:51;;;;;;;4.05;2.88;;;23.90;67.20;;;;;;6262468;28;89650;-91
2024/01/08 14:27:54;;;;;;;3.75;3.40;;;23.90;67.20;;;;;;6263961;28;89121;-91
2024/01/08 14:30:56;;;;;;;5.30;2.88;;;23.90;67.20;;;;;;6262442;28;89326;-91
2024/01/08 14:33:58;;;;;;;5.25;3.80;;;23.90;68.20;;;;;;6261614;28;88898;-91
2024/01/08 14:37:02;;;;;;;3.58;3.05;;;23.90;68.50;;;;;;6262239;28;86334;-91
2024/01/08 14:40:04;;;;;;;4.72;3.42;;;23.90;68.60;;;;;;6262168;28;89364;-91
2024/01/08 14:43:09;;;;;;;3.85;2.80;;;23.90;68.80;;;;;;6261613;28;89002;-91
2024/01/08 14:46:11;;;;;;;3.40;3.10;;;23.90;69.10;;;;;;6260999;28;90158;-91
2024/01/08 14:49:17;;;;;;;3.78;3.10;;;23.90;69.30;;;;;;6261747;28;89086;-91
2024/01/08 14:52:20;;;;;;;3.47;2.90;;;23.90;69.40;;;;;;6261387;28;89050;-91
2024/01/08 14:55:24;;;;;;;5.43;3.03;;;23.90;69.60;;;;;;6261216;28;88456;-91
2024/01/08 14:58:27;;;;;;;3.38;2.75;;;23.90;69.80;;;;;;6261157;28;89377;-91
2024/01/08 15:01:29;;;;;;;3.10;2.80;;;23.90;70.10;;;;;;6261601;28;89078;-91
2024/01/08 15:04:32;;;;;;;4.13;3.10;;;23.90;70.10;;;;;;6261309;28;89157;-91
2024/01/08 15:07:36;;;;;;;4.22;3.10;;;23.90;70.30;;;;;;6261458;28;88355;-91
2024/01/08 15:10:38;;;;;;;4.75;3.17;;;23.90;70.40;;;;;;6261252;28;89211;-91
2024/01/08 15:13:40;;;;;;;3.85;3.00;;;23.90;70.50;;;;;;6261242;28;89309;-91
2024/01/08 15:16:44;;;;;;;3.53;2.80;;;23.90;70.60;;;;;;6260270;28;90001;-91
2024/01/08 15:19:47;;;;;;;4.88;2.80;;;24.00;70.70;;;;;;6260450;28;89008;-91
2024/01/08 15:22:51;;;;;;;3.90;2.90;;;24.00;70.80;;;;;;6261563;28;89130;-91
2024/01/08 15:25:53;;;;;;;3.65;3.08;;;24.00;70.80;;;;;;6258078;28;86998;-91
2024/01/08 15:28:56;;;;;;;4.20;3.00;;;24.00;70.90;;;;;;6242626;28;89228;-91
2024/01/08 15:31:58;;;;;;;3.67;2.92;;;24.00;71.00;;;;;;6261002;28;89934;-91
2024/01/08 15:35:00;;;;;;;4.35;3.22;;;24.00;71.00;;;;;;6260055;28;92187;-91
2024/01/08 15:38:04;;;;;;;5.60;3.25;;;24.00;71.10;;;;;;6260966;28;88893;-91
2024/01/08 15:41:07;;;;;;;3.88;2.97;;;24.00;71.20;;;;;;6260326;28;88947;-91
2024/01/08 15:44:09;;;;;;;3.55;3.10;;;24.00;71.20;;;;;;6260389;28;89319;-91
2024/01/08 15:47:11;;;;;;;3.85;3.13;;;24.00;71.30;;;;;;6259532;28;90374;-91
2024/01/08 15:50:14;;;;;;;4.65;3.38;;;24.00;71.30;;;;;;6260460;28;89487;-91